Terminal Aerodrome Forecast
Issued by NWS

Home | Current Version | Previous Version | Text Only | Print | Product List | Glossary On
Versions: 1 2 3 4 5 6 7 8 9 10 11 12 13 14 15 16 17 18 19 20 21 22 23 24
000
FTUS46 KOTX 131739
TAFCOE
TAF
KCOE 131739Z 1318/1418 03007KT P6SM FEW200
     FM140300 05006KT P6SM FEW170 BKN200
     FM141000 06008KT P6SM SCT150 OVC190
     FM141500 05008KT P6SM VCTS SCT100CB OVC130
      AMD LTD TO CLD VIS AND WIND=

USA.gov is the U.S. government's official web portal to all federal, state and local government web resources and services.